sensor_id;sensor_type;location;lat;lon;timestamp;temperature;humidity
18317;DHT22;9284;52.298;21.164;2022-12-22T00:02:47;2.20;99.90
18317;DHT22;9284;52.298;21.164;2022-12-22T00:05:33;2.30;99.90
18317;DHT22;9284;52.298;21.164;2022-12-22T00:08:19;2.40;99.90
18317;DHT22;9284;52.298;21.164;2022-12-22T00:11:11;2.50;99.90
18317;DHT22;9284;52.298;21.164;2022-12-22T00:13:58;2.40;99.90
18317;DHT22;9284;52.298;21.164;2022-12-22T00:16:44;2.40;99.90
18317;DHT22;9284;52.298;21.164;2022-12-22T00:19:30;2.40;99.90
18317;DHT22;9284;52.298;21.164;2022-12-22T00:22:21;2.50;99.90
18317;DHT22;9284;52.298;21.164;2022-12-22T00:25:12;2.30;99.90
18317;DHT22;9284;52.298;21.164;2022-12-22T00:28:00;2.50;99.90
18317;DHT22;9284;52.298;21.164;2022-12-22T00:30:47;2.40;99.90
18317;DHT22;9284;52.298;21.164;2022-12-22T00:33:34;2.30;99.90
18317;DHT22;9284;52.298;21.164;2022-12-22T00:36:23;2.50;99.90
18317;DHT22;9284;52.298;21.164;2022-12-22T00:39:11;2.40;99.90
18317;DHT22;9284;52.298;21.164;2022-12-22T00:41:58;2.50;99.90
18317;DHT22;9284;52.298;21.164;2022-12-22T00:44:49;2.60;99.90
18317;DHT22;9284;52.298;21.164;2022-12-22T00:47:38;2.50;99.90
18317;DHT22;9284;52.298;21.164;2022-12-22T00:50:30;2.40;99.90
18317;DHT22;9284;52.298;21.164;2022-12-22T00:53:18;2.60;99.90
18317;DHT22;9284;52.298;21.164;2022-12-22T00:56:05;2.60;99.90
18317;DHT22;9284;52.298;21.164;2022-12-22T01:02:03;2.50;99.90
18317;DHT22;9284;52.298;21.164;2022-12-22T01:04:50;2.60;99.90
18317;DHT22;9284;52.298;21.164;2022-12-22T01:07:36;2.60;99.90
18317;DHT22;9284;52.298;21.164;2022-12-22T01:10:23;2.60;99.90
18317;DHT22;9284;52.298;21.164;2022-12-22T01:13:11;2.50;99.90
18317;DHT22;9284;52.298;21.164;2022-12-22T01:15:57;2.50;99.90
18317;DHT22;9284;52.298;21.164;2022-12-22T01:21:35;2.50;99.90
18317;DHT22;9284;52.298;21.164;2022-12-22T01:24:21;2.40;99.90
18317;DHT22;9284;52.298;21.164;2022-12-22T01:27:08;2.50;99.90
18317;DHT22;9284;52.298;21.164;2022-12-22T01:29:54;2.40;99.90
18317;DHT22;9284;52.298;21.164;2022-12-22T01:32:39;2.70;99.90
18317;DHT22;9284;52.298;21.164;2022-12-22T01:35:27;2.40;99.90
18317;DHT22;9284;52.298;21.164;2022-12-22T01:38:14;2.40;99.90
18317;DHT22;9284;52.298;21.164;2022-12-22T01:41:02;2.40;99.90
18317;DHT22;9284;52.298;21.164;2022-12-22T01:43:48;2.40;99.90
18317;DHT22;9284;52.298;21.164;2022-12-22T01:46:36;2.40;99.90
18317;DHT22;9284;52.298;21.164;2022-12-22T01:49:24;2.40;99.90
18317;DHT22;9284;52.298;21.164;2022-12-22T01:52:14;2.40;99.90
18317;DHT22;9284;52.298;21.164;2022-12-22T01:55:04;2.40;99.90
18317;DHT22;9284;52.298;21.164;2022-12-22T01:57:53;2.40;99.90
18317;DHT22;9284;52.298;21.164;2022-12-22T02:00:39;2.40;99.90
18317;DHT22;9284;52.298;21.164;2022-12-22T02:03:26;2.40;99.90
18317;DHT22;9284;52.298;21.164;2022-12-22T02:06:17;2.50;99.90
18317;DHT22;9284;52.298;21.164;2022-12-22T02:09:15;2.50;99.90
18317;DHT22;9284;52.298;21.164;2022-12-22T02:12:09;2.50;99.90
18317;DHT22;9284;52.298;21.164;2022-12-22T02:15:01;2.50;99.90
18317;DHT22;9284;52.298;21.164;2022-12-22T02:17:54;2.50;99.90
18317;DHT22;9284;52.298;21.164;2022-12-22T02:20:46;2.40;99.90
18317;DHT22;9284;52.298;21.164;2022-12-22T02:23:54;2.40;99.90
18317;DHT22;9284;52.298;21.164;2022-12-22T02:26:51;2.40;99.90
18317;DHT22;9284;52.298;21.164;2022-12-22T02:29:41;2.50;99.90
18317;DHT22;9284;52.298;21.164;2022-12-22T02:32:32;2.50;99.90
18317;DHT22;9284;52.298;21.164;2022-12-22T02:35:18;2.40;99.90
18317;DHT22;9284;52.298;21.164;2022-12-22T02:38:09;2.50;99.90
18317;DHT22;9284;52.298;21.164;2022-12-22T02:41:08;2.60;99.90
18317;DHT22;9284;52.298;21.164;2022-12-22T02:44:15;2.40;99.90
18317;DHT22;9284;52.298;21.164;2022-12-22T02:47:15;2.40;99.90
18317;DHT22;9284;52.298;21.164;2022-12-22T02:50:08;2.50;99.90
18317;DHT22;9284;52.298;21.164;2022-12-22T02:52:56;2.50;99.90
18317;DHT22;9284;52.298;21.164;2022-12-22T02:55:42;2.50;99.90
18317;DHT22;9284;52.298;21.164;2022-12-22T02:58:31;2.40;99.90
18317;DHT22;9284;52.298;21.164;2022-12-22T03:01:19;2.40;99.90
18317;DHT22;9284;52.298;21.164;2022-12-22T03:04:04;2.40;99.90
18317;DHT22;9284;52.298;21.164;2022-12-22T03:06:50;2.50;99.90
18317;DHT22;9284;52.298;21.164;2022-12-22T03:09:35;2.40;99.90
18317;DHT22;9284;52.298;21.164;2022-12-22T03:12:30;2.50;99.90
18317;DHT22;9284;52.298;21.164;2022-12-22T03:15:17;2.50;99.90
18317;DHT22;9284;52.298;21.164;2022-12-22T03:18:05;2.50;99.90
18317;DHT22;9284;52.298;21.164;2022-12-22T03:20:52;2.50;99.90
18317;DHT22;9284;52.298;21.164;2022-12-22T03:23:38;2.50;99.90
18317;DHT22;9284;52.298;21.164;2022-12-22T03:26:24;2.50;99.90
18317;DHT22;9284;52.298;21.164;2022-12-22T03:28:53;2.50;99.90
18317;DHT22;9284;52.298;21.164;2022-12-22T03:31:21;2.50;99.90
18317;DHT22;9284;52.298;21.164;2022-12-22T03:33:51;2.50;99.90
18317;DHT22;9284;52.298;21.164;2022-12-22T03:36:19;2.50;99.90
18317;DHT22;9284;52.298;21.164;2022-12-22T03:38:48;2.50;99.90
18317;DHT22;9284;52.298;21.164;2022-12-22T03:41:16;2.50;99.90
18317;DHT22;9284;52.298;21.164;2022-12-22T03:43:58;2.50;99.90
18317;DHT22;9284;52.298;21.164;2022-12-22T03:46:44;2.50;99.90
18317;DHT22;9284;52.298;21.164;2022-12-22T03:49:13;2.70;99.90
18317;DHT22;9284;52.298;21.164;2022-12-22T03:51:43;2.50;99.90
18317;DHT22;9284;52.298;21.164;2022-12-22T03:54:12;2.60;99.90
18317;DHT22;9284;52.298;21.164;2022-12-22T03:56:41;2.60;99.90
18317;DHT22;9284;52.298;21.164;2022-12-22T03:59:10;2.80;99.90
18317;DHT22;9284;52.298;21.164;2022-12-22T04:01:40;2.70;99.90
18317;DHT22;9284;52.298;21.164;2022-12-22T04:04:10;2.50;99.90
18317;DHT22;9284;52.298;21.164;2022-12-22T04:06:41;2.60;99.90
18317;DHT22;9284;52.298;21.164;2022-12-22T04:09:09;2.60;99.90
18317;DHT22;9284;52.298;21.164;2022-12-22T04:11:37;2.60;99.90
18317;DHT22;9284;52.298;21.164;2022-12-22T04:14:23;2.60;99.90
18317;DHT22;9284;52.298;21.164;2022-12-22T04:16:59;2.50;99.90
18317;DHT22;9284;52.298;21.164;2022-12-22T04:19:28;2.60;99.90
18317;DHT22;9284;52.298;21.164;2022-12-22T04:21:58;2.60;99.90
18317;DHT22;9284;52.298;21.164;2022-12-22T04:24:26;2.70;99.90
18317;DHT22;9284;52.298;21.164;2022-12-22T04:27:08;2.70;99.90
18317;DHT22;9284;52.298;21.164;2022-12-22T04:29:37;2.70;99.90
18317;DHT22;9284;52.298;21.164;2022-12-22T04:32:05;2.70;99.90
18317;DHT22;9284;52.298;21.164;2022-12-22T04:34:33;2.70;99.90
18317;DHT22;9284;52.298;21.164;2022-12-22T04:37:01;2.80;99.90
18317;DHT22;9284;52.298;21.164;2022-12-22T04:39:42;2.80;99.90
18317;DHT22;9284;52.298;21.164;2022-12-22T04:42:12;2.80;99.90
18317;DHT22;9284;52.298;21.164;2022-12-22T04:44:40;2.70;99.90
18317;DHT22;9284;52.298;21.164;2022-12-22T04:47:08;2.80;99.90
18317;DHT22;9284;52.298;21.164;2022-12-22T04:49:37;2.80;99.90
18317;DHT22;9284;52.298;21.164;2022-12-22T04:52:05;2.80;99.90
18317;DHT22;9284;52.298;21.164;2022-12-22T04:54:33;2.80;99.90
18317;DHT22;9284;52.298;21.164;2022-12-22T04:57:01;2.80;99.90
18317;DHT22;9284;52.298;21.164;2022-12-22T04:59:31;2.80;99.90
18317;DHT22;9284;52.298;21.164;2022-12-22T05:01:59;2.90;99.90
18317;DHT22;9284;52.298;21.164;2022-12-22T05:04:28;2.80;99.90
18317;DHT22;9284;52.298;21.164;2022-12-22T05:06:56;2.80;99.90
18317;DHT22;9284;52.298;21.164;2022-12-22T05:09:24;2.90;99.90
18317;DHT22;9284;52.298;21.164;2022-12-22T05:11:52;2.90;99.90
18317;DHT22;9284;52.298;21.164;2022-12-22T05:14:21;2.90;99.90
18317;DHT22;9284;52.298;21.164;2022-12-22T05:16:50;2.80;99.90
18317;DHT22;9284;52.298;21.164;2022-12-22T05:19:19;2.90;99.90
18317;DHT22;9284;52.298;21.164;2022-12-22T05:21:53;2.90;99.90
18317;DHT22;9284;52.298;21.164;2022-12-22T05:24:21;2.90;99.90
18317;DHT22;9284;52.298;21.164;2022-12-22T05:26:49;2.80;99.90
18317;DHT22;9284;52.298;21.164;2022-12-22T05:29:18;2.90;99.90
18317;DHT22;9284;52.298;21.164;2022-12-22T05:31:46;2.90;99.90
18317;DHT22;9284;52.298;21.164;2022-12-22T05:34:16;2.80;99.90
18317;DHT22;9284;52.298;21.164;2022-12-22T05:36:44;2.90;99.90
18317;DHT22;9284;52.298;21.164;2022-12-22T05:39:12;2.80;99.90
18317;DHT22;9284;52.298;21.164;2022-12-22T05:41:40;2.90;99.90
18317;DHT22;9284;52.298;21.164;2022-12-22T05:44:08;2.80;99.90
18317;DHT22;9284;52.298;21.164;2022-12-22T05:46:36;2.90;99.90
18317;DHT22;9284;52.298;21.164;2022-12-22T05:49:05;2.90;99.90
18317;DHT22;9284;52.298;21.164;2022-12-22T05:51:34;2.80;99.90
18317;DHT22;9284;52.298;21.164;2022-12-22T05:54:03;2.80;99.90
18317;DHT22;9284;52.298;21.164;2022-12-22T05:56:31;2.80;99.90
18317;DHT22;9284;52.298;21.164;2022-12-22T05:58:59;3.00;99.90
18317;DHT22;9284;52.298;21.164;2022-12-22T06:01:27;2.90;99.90
18317;DHT22;9284;52.298;21.164;2022-12-22T06:03:56;2.70;99.90
18317;DHT22;9284;52.298;21.164;2022-12-22T06:06:26;2.80;99.90
18317;DHT22;9284;52.298;21.164;2022-12-22T06:08:56;2.90;99.90
18317;DHT22;9284;52.298;21.164;2022-12-22T06:11:24;2.90;99.90
18317;DHT22;9284;52.298;21.164;2022-12-22T06:13:52;2.90;99.90
18317;DHT22;9284;52.298;21.164;2022-12-22T06:16:20;2.90;99.90
18317;DHT22;9284;52.298;21.164;2022-12-22T06:18:50;2.90;99.90
18317;DHT22;9284;52.298;21.164;2022-12-22T06:21:18;2.90;99.90
18317;DHT22;9284;52.298;21.164;2022-12-22T06:23:46;2.80;99.90
18317;DHT22;9284;52.298;21.164;2022-12-22T06:26:16;2.80;99.90
18317;DHT22;9284;52.298;21.164;2022-12-22T06:28:44;2.90;99.90
18317;DHT22;9284;52.298;21.164;2022-12-22T06:31:12;2.90;99.90
18317;DHT22;9284;52.298;21.164;2022-12-22T06:33:41;2.80;99.90
18317;DHT22;9284;52.298;21.164;2022-12-22T06:36:09;2.90;99.90
18317;DHT22;9284;52.298;21.164;2022-12-22T06:38:38;2.90;99.90
18317;DHT22;9284;52.298;21.164;2022-12-22T06:41:06;2.90;99.90
18317;DHT22;9284;52.298;21.164;2022-12-22T06:43:36;2.90;99.90
18317;DHT22;9284;52.298;21.164;2022-12-22T06:46:03;2.80;99.90
18317;DHT22;9284;52.298;21.164;2022-12-22T06:48:31;2.80;99.90
18317;DHT22;9284;52.298;21.164;2022-12-22T06:51:00;2.90;99.90
18317;DHT22;9284;52.298;21.164;2022-12-22T06:53:28;3.00;99.90
18317;DHT22;9284;52.298;21.164;2022-12-22T06:55:56;2.90;99.90
18317;DHT22;9284;52.298;21.164;2022-12-22T06:58:24;3.00;99.90
18317;DHT22;9284;52.298;21.164;2022-12-22T07:00:56;2.90;99.90
18317;DHT22;9284;52.298;21.164;2022-12-22T07:03:24;2.90;99.90
18317;DHT22;9284;52.298;21.164;2022-12-22T07:05:52;2.90;99.90
18317;DHT22;9284;52.298;21.164;2022-12-22T07:08:21;2.90;99.90
18317;DHT22;9284;52.298;21.164;2022-12-22T07:10:49;2.90;99.90
18317;DHT22;9284;52.298;21.164;2022-12-22T07:13:28;2.90;99.90
18317;DHT22;9284;52.298;21.164;2022-12-22T07:15:59;3.00;99.90
18317;DHT22;9284;52.298;21.164;2022-12-22T07:18:29;3.00;99.90
18317;DHT22;9284;52.298;21.164;2022-12-22T07:20:58;2.90;99.90
18317;DHT22;9284;52.298;21.164;2022-12-22T07:23:28;2.90;99.90
18317;DHT22;9284;52.298;21.164;2022-12-22T07:25:56;2.90;99.90
18317;DHT22;9284;52.298;21.164;2022-12-22T07:28:25;2.90;99.90
18317;DHT22;9284;52.298;21.164;2022-12-22T07:30:54;3.00;99.90
18317;DHT22;9284;52.298;21.164;2022-12-22T07:33:24;3.00;99.90
18317;DHT22;9284;52.298;21.164;2022-12-22T07:36:04;3.00;99.90
18317;DHT22;9284;52.298;21.164;2022-12-22T07:38:34;3.00;99.90
18317;DHT22;9284;52.298;21.164;2022-12-22T07:41:04;3.00;99.90
18317;DHT22;9284;52.298;21.164;2022-12-22T07:43:55;3.00;99.90
18317;DHT22;9284;52.298;21.164;2022-12-22T07:46:23;3.00;99.90
18317;DHT22;9284;52.298;21.164;2022-12-22T07:48:54;3.00;99.90
18317;DHT22;9284;52.298;21.164;2022-12-22T07:51:43;3.10;99.90
18317;DHT22;9284;52.298;21.164;2022-12-22T07:54:13;3.20;99.90
18317;DHT22;9284;52.298;21.164;2022-12-22T07:56:42;3.10;99.90
18317;DHT22;9284;52.298;21.164;2022-12-22T07:59:11;3.10;99.90
18317;DHT22;9284;52.298;21.164;2022-12-22T08:01:40;3.10;99.90
18317;DHT22;9284;52.298;21.164;2022-12-22T08:04:10;3.10;99.90
18317;DHT22;9284;52.298;21.164;2022-12-22T08:06:39;3.10;99.90
18317;DHT22;9284;52.298;21.164;2022-12-22T08:09:08;3.20;99.90
18317;DHT22;9284;52.298;21.164;2022-12-22T08:11:37;3.20;99.90
18317;DHT22;9284;52.298;21.164;2022-12-22T08:14:05;3.20;99.90
18317;DHT22;9284;52.298;21.164;2022-12-22T08:16:33;3.20;99.90
18317;DHT22;9284;52.298;21.164;2022-12-22T08:19:02;3.20;99.90
18317;DHT22;9284;52.298;21.164;2022-12-22T08:21:31;3.30;99.90
18317;DHT22;9284;52.298;21.164;2022-12-22T08:24:00;3.30;99.90
18317;DHT22;9284;52.298;21.164;2022-12-22T08:26:31;3.30;99.90
18317;DHT22;9284;52.298;21.164;2022-12-22T08:29:04;3.40;99.90
18317;DHT22;9284;52.298;21.164;2022-12-22T08:31:34;3.50;99.90
18317;DHT22;9284;52.298;21.164;2022-12-22T08:34:05;3.60;99.90
18317;DHT22;9284;52.298;21.164;2022-12-22T08:36:38;3.60;99.90
18317;DHT22;9284;52.298;21.164;2022-12-22T08:39:07;3.50;99.90
18317;DHT22;9284;52.298;21.164;2022-12-22T08:41:36;3.60;99.90
18317;DHT22;9284;52.298;21.164;2022-12-22T08:44:21;3.60;99.90
18317;DHT22;9284;52.298;21.164;2022-12-22T08:46:50;3.60;99.90
18317;DHT22;9284;52.298;21.164;2022-12-22T08:49:19;3.60;99.90
18317;DHT22;9284;52.298;21.164;2022-12-22T08:51:49;3.60;99.90
18317;DHT22;9284;52.298;21.164;2022-12-22T08:54:18;3.70;99.90
18317;DHT22;9284;52.298;21.164;2022-12-22T08:56:47;3.70;99.90
18317;DHT22;9284;52.298;21.164;2022-12-22T08:59:15;3.70;99.90
18317;DHT22;9284;52.298;21.164;2022-12-22T09:01:45;3.70;99.90
18317;DHT22;9284;52.298;21.164;2022-12-22T09:04:18;3.60;99.90
18317;DHT22;9284;52.298;21.164;2022-12-22T09:06:49;3.60;99.90
18317;DHT22;9284;52.298;21.164;2022-12-22T09:09:19;3.50;99.90
18317;DHT22;9284;52.298;21.164;2022-12-22T09:11:47;3.60;99.90
18317;DHT22;9284;52.298;21.164;2022-12-22T09:14:16;3.50;99.90
18317;DHT22;9284;52.298;21.164;2022-12-22T09:16:44;3.60;99.90
18317;DHT22;9284;52.298;21.164;2022-12-22T09:19:13;3.50;99.90
18317;DHT22;9284;52.298;21.164;2022-12-22T09:21:41;3.60;99.90
18317;DHT22;9284;52.298;21.164;2022-12-22T09:24:13;3.60;99.90
18317;DHT22;9284;52.298;21.164;2022-12-22T09:26:42;3.70;99.90
18317;DHT22;9284;52.298;21.164;2022-12-22T09:29:10;3.80;99.90
18317;DHT22;9284;52.298;21.164;2022-12-22T09:31:41;3.80;99.90
18317;DHT22;9284;52.298;21.164;2022-12-22T09:34:10;3.80;99.90
18317;DHT22;9284;52.298;21.164;2022-12-22T09:36:43;3.90;99.90
18317;DHT22;9284;52.298;21.164;2022-12-22T09:39:14;3.90;99.90
18317;DHT22;9284;52.298;21.164;2022-12-22T09:41:45;3.90;99.90
18317;DHT22;9284;52.298;21.164;2022-12-22T09:44:21;3.70;99.90
18317;DHT22;9284;52.298;21.164;2022-12-22T09:46:53;3.70;99.90
18317;DHT22;9284;52.298;21.164;2022-12-22T09:49:26;3.70;99.90
18317;DHT22;9284;52.298;21.164;2022-12-22T09:51:56;3.60;99.90
18317;DHT22;9284;52.298;21.164;2022-12-22T09:54:28;3.60;99.90
18317;DHT22;9284;52.298;21.164;2022-12-22T09:56:57;3.60;99.90
18317;DHT22;9284;52.298;21.164;2022-12-22T09:59:26;3.70;99.90
18317;DHT22;9284;52.298;21.164;2022-12-22T10:02:14;3.80;99.90
18317;DHT22;9284;52.298;21.164;2022-12-22T10:04:59;3.80;99.90
18317;DHT22;9284;52.298;21.164;2022-12-22T10:07:32;3.90;99.90
18317;DHT22;9284;52.298;21.164;2022-12-22T10:10:06;4.00;99.90
18317;DHT22;9284;52.298;21.164;2022-12-22T10:12:35;4.00;99.90
18317;DHT22;9284;52.298;21.164;2022-12-22T10:15:04;4.00;99.90
18317;DHT22;9284;52.298;21.164;2022-12-22T10:17:42;4.10;99.90
18317;DHT22;9284;52.298;21.164;2022-12-22T10:20:22;4.10;99.90
18317;DHT22;9284;52.298;21.164;2022-12-22T10:22:53;4.20;99.90
18317;DHT22;9284;52.298;21.164;2022-12-22T10:25:28;4.20;99.90
18317;DHT22;9284;52.298;21.164;2022-12-22T10:28:21;4.20;99.90
18317;DHT22;9284;52.298;21.164;2022-12-22T10:31:12;4.20;99.90
18317;DHT22;9284;52.298;21.164;2022-12-22T10:33:43;4.30;99.90
18317;DHT22;9284;52.298;21.164;2022-12-22T10:36:15;4.30;99.90
18317;DHT22;9284;52.298;21.164;2022-12-22T10:38:59;4.30;99.90
18317;DHT22;9284;52.298;21.164;2022-12-22T10:41:31;4.30;99.90
18317;DHT22;9284;52.298;21.164;2022-12-22T10:44:05;4.40;99.90
18317;DHT22;9284;52.298;21.164;2022-12-22T10:46:39;4.30;99.90
18317;DHT22;9284;52.298;21.164;2022-12-22T10:49:19;4.40;99.90
18317;DHT22;9284;52.298;21.164;2022-12-22T10:51:51;4.50;99.90
18317;DHT22;9284;52.298;21.164;2022-12-22T10:54:30;4.40;99.90
18317;DHT22;9284;52.298;21.164;2022-12-22T10:57:09;4.40;99.90
18317;DHT22;9284;52.298;21.164;2022-12-22T10:59:48;4.40;99.90
18317;DHT22;9284;52.298;21.164;2022-12-22T11:02:31;4.40;99.90
18317;DHT22;9284;52.298;21.164;2022-12-22T11:05:05;4.30;99.90
18317;DHT22;9284;52.298;21.164;2022-12-22T11:07:35;4.30;99.90
18317;DHT22;9284;52.298;21.164;2022-12-22T11:10:16;4.30;99.90
18317;DHT22;9284;52.298;21.164;2022-12-22T11:13:13;4.40;99.90
18317;DHT22;9284;52.298;21.164;2022-12-22T11:15:50;4.30;99.90
18317;DHT22;9284;52.298;21.164;2022-12-22T11:18:37;4.30;99.90
18317;DHT22;9284;52.298;21.164;2022-12-22T11:21:12;4.30;99.90
18317;DHT22;9284;52.298;21.164;2022-12-22T11:23:55;4.20;99.90
18317;DHT22;9284;52.298;21.164;2022-12-22T11:26:30;4.20;99.90
18317;DHT22;9284;52.298;21.164;2022-12-22T11:29:14;4.30;99.90
18317;DHT22;9284;52.298;21.164;2022-12-22T11:31:55;4.30;99.90
18317;DHT22;9284;52.298;21.164;2022-12-22T11:34:46;4.30;99.90
18317;DHT22;9284;52.298;21.164;2022-12-22T11:37:26;4.30;99.90
18317;DHT22;9284;52.298;21.164;2022-12-22T11:40:00;4.30;99.90
18317;DHT22;9284;52.298;21.164;2022-12-22T11:42:44;4.30;99.90
18317;DHT22;9284;52.298;21.164;2022-12-22T11:45:35;4.30;99.90
18317;DHT22;9284;52.298;21.164;2022-12-22T11:51:06;4.50;99.90
18317;DHT22;9284;52.298;21.164;2022-12-22T11:54:15;4.50;99.90
18317;DHT22;9284;52.298;21.164;2022-12-22T11:56:53;4.60;99.90
18317;DHT22;9284;52.298;21.164;2022-12-22T11:59:41;4.50;99.90
18317;DHT22;9284;52.298;21.164;2022-12-22T12:02:43;4.60;99.90
18317;DHT22;9284;52.298;21.164;2022-12-22T12:05:31;4.60;99.90
18317;DHT22;9284;52.298;21.164;2022-12-22T12:08:09;4.70;99.90
18317;DHT22;9284;52.298;21.164;2022-12-22T12:10:46;4.70;99.90
18317;DHT22;9284;52.298;21.164;2022-12-22T12:13:19;4.70;99.90
18317;DHT22;9284;52.298;21.164;2022-12-22T12:16:05;4.70;99.90
18317;DHT22;9284;52.298;21.164;2022-12-22T12:18:51;4.70;99.90
18317;DHT22;9284;52.298;21.164;2022-12-22T12:21:27;4.80;99.90
18317;DHT22;9284;52.298;21.164;2022-12-22T12:24:17;4.80;99.90
18317;DHT22;9284;52.298;21.164;2022-12-22T12:26:55;4.80;99.90
18317;DHT22;9284;52.298;21.164;2022-12-22T12:29:33;4.80;99.90
18317;DHT22;9284;52.298;21.164;2022-12-22T12:32:05;4.80;99.90
18317;DHT22;9284;52.298;21.164;2022-12-22T12:34:39;4.80;99.90
18317;DHT22;9284;52.298;21.164;2022-12-22T12:37:14;4.70;99.90
18317;DHT22;9284;52.298;21.164;2022-12-22T12:39:58;4.70;99.90
18317;DHT22;9284;52.298;21.164;2022-12-22T12:42:36;4.70;99.90
18317;DHT22;9284;52.298;21.164;2022-12-22T12:45:32;4.70;99.90
18317;DHT22;9284;52.298;21.164;2022-12-22T12:48:35;4.70;99.90
18317;DHT22;9284;52.298;21.164;2022-12-22T12:57:21;4.70;99.90
18317;DHT22;9284;52.298;21.164;2022-12-22T12:59:50;4.80;99.90
18317;DHT22;9284;52.298;21.164;2022-12-22T13:02:39;4.80;99.90
18317;DHT22;9284;52.298;21.164;2022-12-22T13:05:26;4.80;99.90
18317;DHT22;9284;52.298;21.164;2022-12-22T13:08:17;4.90;99.90
18317;DHT22;9284;52.298;21.164;2022-12-22T13:11:16;4.80;99.90
18317;DHT22;9284;52.298;21.164;2022-12-22T13:14:05;4.80;99.90
18317;DHT22;9284;52.298;21.164;2022-12-22T13:16:36;4.70;99.90
18317;DHT22;9284;52.298;21.164;2022-12-22T13:19:19;4.80;99.90
18317;DHT22;9284;52.298;21.164;2022-12-22T13:21:52;4.70;99.90
18317;DHT22;9284;52.298;21.164;2022-12-22T13:24:28;4.70;99.90
18317;DHT22;9284;52.298;21.164;2022-12-22T13:27:04;4.70;99.90
18317;DHT22;9284;52.298;21.164;2022-12-22T13:29:41;4.60;99.90
18317;DHT22;9284;52.298;21.164;2022-12-22T13:32:25;4.80;99.90
18317;DHT22;9284;52.298;21.164;2022-12-22T13:35:10;4.60;99.90
18317;DHT22;9284;52.298;21.164;2022-12-22T13:37:58;4.60;99.90
18317;DHT22;9284;52.298;21.164;2022-12-22T13:40:28;4.50;99.90
18317;DHT22;9284;52.298;21.164;2022-12-22T13:43:03;4.50;99.90
18317;DHT22;9284;52.298;21.164;2022-12-22T13:45:36;4.40;99.90
18317;DHT22;9284;52.298;21.164;2022-12-22T13:48:08;4.40;99.90
18317;DHT22;9284;52.298;21.164;2022-12-22T13:50:42;4.40;99.90
18317;DHT22;9284;52.298;21.164;2022-12-22T13:53:17;4.30;99.90
18317;DHT22;9284;52.298;21.164;2022-12-22T13:56:11;4.30;99.90
18317;DHT22;9284;52.298;21.164;2022-12-22T13:58:43;4.20;99.90
18317;DHT22;9284;52.298;21.164;2022-12-22T14:01:18;4.20;99.90
18317;DHT22;9284;52.298;21.164;2022-12-22T14:03:49;4.20;99.90
18317;DHT22;9284;52.298;21.164;2022-12-22T14:06:30;4.20;99.90
18317;DHT22;9284;52.298;21.164;2022-12-22T14:09:17;4.20;99.90
18317;DHT22;9284;52.298;21.164;2022-12-22T14:11:53;4.20;99.90
18317;DHT22;9284;52.298;21.164;2022-12-22T14:14:26;4.20;99.90
18317;DHT22;9284;52.298;21.164;2022-12-22T14:16:57;4.20;99.90
18317;DHT22;9284;52.298;21.164;2022-12-22T14:19:30;4.20;99.90
18317;DHT22;9284;52.298;21.164;2022-12-22T14:22:06;4.20;99.90
18317;DHT22;9284;52.298;21.164;2022-12-22T14:24:41;4.20;99.90
18317;DHT22;9284;52.298;21.164;2022-12-22T14:27:17;4.10;99.90
18317;DHT22;9284;52.298;21.164;2022-12-22T14:29:47;4.10;99.90
18317;DHT22;9284;52.298;21.164;2022-12-22T14:32:34;4.10;99.90
18317;DHT22;9284;52.298;21.164;2022-12-22T14:35:03;4.10;99.90
18317;DHT22;9284;52.298;21.164;2022-12-22T14:37:31;4.10;99.90
18317;DHT22;9284;52.298;21.164;2022-12-22T14:40:00;4.10;99.90
18317;DHT22;9284;52.298;21.164;2022-12-22T14:42:29;4.10;99.90
18317;DHT22;9284;52.298;21.164;2022-12-22T14:44:59;4.10;99.90
18317;DHT22;9284;52.298;21.164;2022-12-22T14:47:28;4.10;99.90
18317;DHT22;9284;52.298;21.164;2022-12-22T14:50:00;4.20;99.90
18317;DHT22;9284;52.298;21.164;2022-12-22T14:52:34;4.20;99.90
18317;DHT22;9284;52.298;21.164;2022-12-22T14:55:16;4.10;99.90
18317;DHT22;9284;52.298;21.164;2022-12-22T14:57:51;4.10;99.90
18317;DHT22;9284;52.298;21.164;2022-12-22T15:00:31;4.10;99.90
18317;DHT22;9284;52.298;21.164;2022-12-22T15:03:02;4.10;99.90
18317;DHT22;9284;52.298;21.164;2022-12-22T15:05:32;4.10;99.90
18317;DHT22;9284;52.298;21.164;2022-12-22T15:08:04;4.10;99.90
18317;DHT22;9284;52.298;21.164;2022-12-22T15:10:40;4.20;99.90
18317;DHT22;9284;52.298;21.164;2022-12-22T15:13:20;4.10;99.90
18317;DHT22;9284;52.298;21.164;2022-12-22T15:15:50;4.10;99.90
18317;DHT22;9284;52.298;21.164;2022-12-22T15:18:23;4.10;99.90
18317;DHT22;9284;52.298;21.164;2022-12-22T15:20:52;4.10;99.90
18317;DHT22;9284;52.298;21.164;2022-12-22T15:23:21;3.90;99.90
18317;DHT22;9284;52.298;21.164;2022-12-22T15:25:50;4.00;99.90
18317;DHT22;9284;52.298;21.164;2022-12-22T15:28:18;3.90;99.90
18317;DHT22;9284;52.298;21.164;2022-12-22T15:30:46;4.00;99.90
18317;DHT22;9284;52.298;21.164;2022-12-22T15:33:17;3.90;99.90
18317;DHT22;9284;52.298;21.164;2022-12-22T15:35:46;4.00;99.90
18317;DHT22;9284;52.298;21.164;2022-12-22T15:38:16;3.90;99.90
18317;DHT22;9284;52.298;21.164;2022-12-22T15:40:44;3.90;99.90
18317;DHT22;9284;52.298;21.164;2022-12-22T15:43:13;3.90;99.90
18317;DHT22;9284;52.298;21.164;2022-12-22T15:46:02;3.80;99.90
18317;DHT22;9284;52.298;21.164;2022-12-22T15:48:35;3.80;99.90
18317;DHT22;9284;52.298;21.164;2022-12-22T15:51:07;3.70;99.90
18317;DHT22;9284;52.298;21.164;2022-12-22T15:53:38;3.70;99.90
18317;DHT22;9284;52.298;21.164;2022-12-22T15:56:12;3.70;99.90
18317;DHT22;9284;52.298;21.164;2022-12-22T15:58:44;3.80;99.90
18317;DHT22;9284;52.298;21.164;2022-12-22T16:01:12;3.60;99.90
18317;DHT22;9284;52.298;21.164;2022-12-22T16:03:42;3.50;99.90
18317;DHT22;9284;52.298;21.164;2022-12-22T16:06:11;3.60;99.90
18317;DHT22;9284;52.298;21.164;2022-12-22T16:08:43;3.60;99.90
18317;DHT22;9284;52.298;21.164;2022-12-22T16:11:13;3.70;99.90
18317;DHT22;9284;52.298;21.164;2022-12-22T16:13:41;3.70;99.90
18317;DHT22;9284;52.298;21.164;2022-12-22T16:16:09;3.80;99.90
18317;DHT22;9284;52.298;21.164;2022-12-22T16:18:38;3.80;99.90
18317;DHT22;9284;52.298;21.164;2022-12-22T16:21:14;3.80;99.90
18317;DHT22;9284;52.298;21.164;2022-12-22T16:23:46;3.80;99.90
18317;DHT22;9284;52.298;21.164;2022-12-22T16:26:16;3.70;99.90
18317;DHT22;9284;52.298;21.164;2022-12-22T16:28:45;3.80;99.90
18317;DHT22;9284;52.298;21.164;2022-12-22T16:31:17;3.70;99.90
18317;DHT22;9284;52.298;21.164;2022-12-22T16:33:46;3.80;99.90
18317;DHT22;9284;52.298;21.164;2022-12-22T16:36:16;3.60;99.90
18317;DHT22;9284;52.298;21.164;2022-12-22T16:38:45;3.50;99.90
18317;DHT22;9284;52.298;21.164;2022-12-22T16:41:21;3.50;99.90
18317;DHT22;9284;52.298;21.164;2022-12-22T16:43:50;3.70;99.90
18317;DHT22;9284;52.298;21.164;2022-12-22T16:46:20;3.60;99.90
18317;DHT22;9284;52.298;21.164;2022-12-22T16:48:51;3.60;99.90
18317;DHT22;9284;52.298;21.164;2022-12-22T16:51:24;3.60;99.90
18317;DHT22;9284;52.298;21.164;2022-12-22T16:53:52;3.50;99.90
18317;DHT22;9284;52.298;21.164;2022-12-22T16:56:22;3.50;99.90
18317;DHT22;9284;52.298;21.164;2022-12-22T16:58:53;3.50;99.90